nws-alerts: Checking more than four warning/county codes can delay the loading of your pages. You should use a cron job to get the data.

Nearby METAR Reports

 

KFCI - Richmond/Chester, Virginia, USA
Distance from station: ESE 7mi, 11km
Updated: Tue, 09-Aug-2022 3:56am EDT
Clear
Clear
 Wind from SSW
Wind: SSW 6 mph , 9 km/h
Temperature: 75°F , 24°C
Dew Point: 75°F , 24°C
Humidity: 100%
Barometer: 30.03 inHg , 1016.9 hPa
Clouds: Clear
Visibility: 10 miles , 16 km
2022/08/09 07:56 KFCI 090756Z AUTO 20005KT 10SM CLR 24/24 A3003 RMK AO2 SLP178 T02390239
KRIC - Richmond, Virginia, USA
Distance from station: ENE 19mi, 30km
Updated: Tue, 09-Aug-2022 3:54am EDT
Clear
Clear
 Wind from SW
Wind: SW 9 mph , 15 km/h
Temperature: 79°F , 26°C
Dew Point: 72°F , 22°C
Humidity: 79%
Barometer: 30.02 inHg , 1016.6 hPa
Clouds: Clear
Visibility: 10 miles , 16 km
2022/08/09 07:54 KRIC 090754Z 22008KT 10SM CLR 26/22 A3002 RMK AO2 SLP169 T02560222
 
KPTB - Petersburg, Virginia, USA
Distance from station: SSE 19mi, 31km
Updated: Tue, 09-Aug-2022 4:35am EDT
Clear
Clear
 Wind from SSW
Wind: SSW 5 mph , 7 km/h
Temperature: 75°F , 24°C
Dew Point: 72°F , 22°C
Humidity: 89%
Barometer: 30.04 inHg , 1017.3 hPa
Clouds: Clear
Visibility: 10 miles , 16 km
2022/08/09 08:35 KPTB 090835Z AUTO 21004KT 10SM CLR 24/22 A3004 RMK AO2 T02400223
KOFP - Richmond/Hanover, Virginia, USA
Distance from station: NNE 22mi, 36km
Updated: Tue, 09-Aug-2022 3:54am EDT
Clear
Clear
 Wind from SSW
Wind: SSW 8 mph , 13 km/h
Temperature: 81°F , 27°C
Heat Index: 86°F , 30°C
Dew Point: 73°F , 23°C
Humidity: 79%
Barometer: 30.02 inHg , 1016.6 hPa
Clouds: Clear
Visibility: 10 miles , 16 km
2022/08/09 07:54 KOFP 090754Z AUTO 21007KT 10SM CLR 27/23 A3002 RMK AO2 SLP163 T02670228
 
KW96 - Quinton, Virginia, USA
Distance from station: E 28mi, 46km
Updated: Tue, 09-Aug-2022 4:35am EDT
Clear
Clear
 Wind from SSW
Wind: SSW 3 mph , 6 km/h
Temperature: 77°F , 25°C
Dew Point: 73°F , 23°C
Humidity: 89%
Barometer: 30.02 inHg , 1016.6 hPa
Clouds: Clear
Visibility: 10 miles , 16 km
2022/08/09 08:35 KW96 090835Z AUTO 21003KT 10SM CLR 25/23 A3002 RMK AO1 T02500225
KBKT - Blackstone Army, Virginia, USA
Distance from station: SW 30mi, 48km
Updated: Tue, 09-Aug-2022 4:35am EDT
Clear
Clear
 Wind from SW
Wind: SW 7 mph , 11 km/h
Temperature: 75°F , 24°C
Dew Point: 73°F , 23°C
Humidity: 94%
Barometer: 30.05 inHg , 1017.6 hPa
Clouds: Clear
Visibility: 10 miles , 16 km
2022/08/09 08:35 KBKT 090835Z AUTO 22006KT 10SM CLR 24/23 A3005 RMK AO1 T02370232
 
KW81 - Crewe, Virginia, USA
Distance from station: SW 30mi, 49km
Updated: Tue, 09-Aug-2022 4:35am EDT
Partly cloudy
Partly cloudy
 Wind from SW
Wind: SW 3 mph , 6 km/h
Temperature: 75°F , 24°C
Dew Point: 72°F , 22°C
Humidity: 89%
Barometer: 30.05 inHg , 1017.6 hPa
Clouds: Partly cloudy
Visibility: 10 miles , 16 km
Cloud details: Partly cloudy 12000 ft
2022/08/09 08:35 KW81 090835Z AUTO 23003KT 10SM SCT120 24/22 A3005 RMK AO1 T02360221
K7W4 - Bumpass, Virginia, USA
Distance from station: N 38mi, 61km
Updated: Tue, 09-Aug-2022 4:35am EDT
Clear
Clear
 Wind from SW
Wind: SW 5 mph , 7 km/h
Temperature: 75°F , 24°C
Dew Point: 72°F , 22°C
Humidity: 89%
Barometer: 30.01 inHg , 1016.3 hPa
Clouds: Clear
Visibility: 10 miles , 16 km
2022/08/09 08:35 K7W4 090835Z AUTO 22004KT 10SM CLR 24/22 A3001 RMK AO1 T02350222
 
KFVX - Farmville, Virginia, USA
Distance from station: W 43mi, 69km
Updated: Tue, 09-Aug-2022 4:35am EDT
Clear
Clear
 Wind from SW
Wind: SW 3 mph , 6 km/h
Temperature: 73°F , 23°C
Dew Point: 72°F , 22°C
Humidity: 94%
Barometer: 30.04 inHg , 1017.3 hPa
Clouds: Clear
Visibility: 10 miles , 16 km
2022/08/09 08:35 KFVX 090835Z AUTO 22003KT 10SM CLR 23/22 A3004 RMK AO2 T02270220
KW31 - Kenbridge, Virginia, USA
Distance from station: SW 43mi, 70km
Updated: Tue, 09-Aug-2022 4:35am EDT
Clear
Clear
 Wind from SW
Wind: SW 6 mph , 9 km/h
Temperature: 73°F , 23°C
Dew Point: 72°F , 22°C
Humidity: 94%
Barometer: 30.05 inHg , 1017.6 hPa
Clouds: Clear
Visibility: 10 miles , 16 km
2022/08/09 08:35 KW31 090835Z AUTO 22005KT 10SM CLR 23/22 A3005 RMK AO1 T02320222
 
KLKU - Louisa, Virginia, USA
Distance from station: NNW 44mi, 72km
Updated: Tue, 09-Aug-2022 3:35am EDT
Clear
Clear
 Wind from SW
Wind: SW 5 mph , 7 km/h
Temperature: 73°F , 23°C
Dew Point: 70°F , 21°C
Humidity: 89%
Barometer: 30.03 inHg , 1016.9 hPa
Clouds: Clear
Visibility: 10 miles , 16 km
2022/08/09 07:35 KLKU 090735Z AUTO 22004KT 10SM CLR 23/21 A3003 RMK AO2 T02280214
KLVL - Lawrenceville, Virginia, USA
Distance from station: S 46mi, 75km
Updated: Tue, 09-Aug-2022 4:35am EDT
Clear
Clear
 Wind from S
Wind: S 6 mph , 9 km/h
Temperature: 75°F , 24°C
Dew Point: 75°F , 24°C
Humidity: 100%
Barometer: 30.06 inHg , 1017.9 hPa
Clouds: Clear
Visibility: 10 miles , 16 km
2022/08/09 08:35 KLVL 090835Z AUTO 19005KT 10SM CLR 24/24 A3006 RMK AO1 T02440235
 
KAKQ - Norfolk/Wakefld, Virginia, USA
Distance from station: SE 47mi, 75km
Updated: Tue, 09-Aug-2022 3:54am EDT
Clear
Clear
 Wind from SSW
Wind: SSW 7 mph , 11 km/h
Temperature: 77°F , 25°C
Dew Point: 72°F , 22°C
Humidity: 83%
Barometer: 30.04 inHg , 1017.3 hPa
Clouds: Clear
Visibility: 10 miles , 16 km
2022/08/09 07:54 KAKQ 090754Z AUTO 21006KT 10SM CLR 25/22 A3004 RMK AO2 SLP171 T02500222
KFYJ - West Point, Virginia, USA
Distance from station: E 48mi, 78km
Updated: Tue, 12-Jul-2022 8:15am EDT
NOT Current
Clear
Clear
 Wind from SSW
Wind: SSW 7 mph , 11 km/h
Temperature: 75°F , 24°C
Dew Point: 70°F , 21°C
Humidity: 83%
Barometer: 29.90 inHg , 1012.5 hPa
Clouds: Clear
Visibility: 10 miles , 16 km
2022/07/12 12:15 KFYJ 121215Z AUTO 20006KT 10SM CLR 24/21 A2990 RMK AO1 T02350209